Time;durP1;ratioP1;P1;durP2;ratioP2;P2;SDS_P1;SDS_P2;PMS_P1;PMS_P2;Temp;Humidity;BMP_temperature;BMP_pressure;BME280_temperature;BME280_humidity;BME280_pressure;Samples;Min_cycle;Max_cycle;Signal;HPM_P1;HPM_P2
2021/05/19 00:33:26;;;;;;;2.50;0.90;;;7.60;99.90;;;;;;5080686;28;20299;-83
2021/05/19 00:35:52;;;;;;;1.23;1.13;;;7.60;99.90;;;;;;5062025;28;20181;-83
2021/05/19 00:38:18;;;;;;;1.83;1.07;;;7.60;99.90;;;;;;5080426;28;20630;-83
2021/05/19 00:40:44;;;;;;;2.10;0.70;;;7.60;99.90;;;;;;5081171;28;20169;-83
2021/05/19 00:43:09;;;;;;;1.30;1.07;;;7.50;99.90;;;;;;5080379;28;20588;-83
2021/05/19 00:45:35;;;;;;;1.30;1.00;;;7.50;99.90;;;;;;5080325;28;20231;-83
2021/05/19 00:48:01;;;;;;;3.73;1.20;;;7.50;99.90;;;;;;5062516;28;20187;-83
2021/05/19 00:50:29;;;;;;;1.90;1.07;;;7.50;99.90;;;;;;5078517;28;20247;-83
2021/05/19 00:52:55;;;;;;;1.07;1.07;;;7.50;99.90;;;;;;5060149;28;20201;-83
2021/05/19 00:55:21;;;;;;;1.10;1.00;;;7.50;99.90;;;;;;5059354;28;20229;-83
2021/05/19 00:57:50;;;;;;;1.37;1.27;;;7.40;99.90;;;;;;5076459;28;20631;-83
2021/05/19 01:00:18;;;;;;;0.83;0.83;;;7.40;99.90;;;;;;5059269;28;20631;-83
2021/05/19 01:02:44;;;;;;;2.60;1.10;;;7.50;99.90;;;;;;5057998;28;20192;-83
2021/05/19 01:05:25;;;;;;;4.33;1.47;;;7.50;99.90;;;;;;5059185;28;20248;-83
2021/05/19 01:10:46;;;;;;;1.97;1.10;;;7.50;99.90;;;;;;5005107;28;20407;-83
2021/05/19 01:13:12;;;;;;;2.23;1.10;;;7.40;99.90;;;;;;5060052;28;20224;-83
2021/05/19 01:15:38;;;;;;;1.97;1.03;;;7.40;99.90;;;;;;5061539;28;20434;-83
2021/05/19 01:18:05;;;;;;;2.63;1.10;;;7.40;99.90;;;;;;5078973;28;20173;-83
2021/05/19 01:20:32;;;;;;;2.07;1.30;;;7.40;99.90;;;;;;5061177;28;20179;-83
2021/05/19 01:22:58;;;;;;;1.40;1.13;;;7.40;99.90;;;;;;5060491;28;20216;-83
2021/05/19 01:25:24;;;;;;;1.20;1.10;;;7.40;99.90;;;;;;5078194;28;20451;-83
2021/05/19 01:27:54;;;;;;;1.60;1.50;;;7.40;99.90;;;;;;5081796;28;20199;-83
2021/05/19 01:30:21;;;;;;;2.80;1.07;;;7.40;99.90;;;;;;5089817;28;20177;-83
2021/05/19 01:32:46;;;;;;;3.13;1.27;;;7.40;99.90;;;;;;5099824;28;20438;-83
2021/05/19 01:35:13;;;;;;;2.57;1.37;;;;;;;;;;5084496;28;20264;-81
2021/05/19 01:37:40;;;;;;;2.60;1.03;;;7.40;99.90;;;;;;5084613;28;20245;-83
2021/05/19 01:40:07;;;;;;;2.23;1.20;;;7.40;99.90;;;;;;5084999;28;20173;-83
2021/05/19 01:42:33;;;;;;;1.70;1.00;;;;;;;;;;5060667;28;20485;-83
2021/05/19 01:45:02;;;;;;;1.93;1.20;;;7.30;99.90;;;;;;5060000;28;20410;-83
2021/05/19 01:47:49;;;;;;;1.90;1.10;;;7.40;99.90;;;;;;5059896;28;20215;-84
2021/05/19 01:50:19;;;;;;;1.10;0.97;;;7.30;99.90;;;;;;5077456;28;20438;-84
2021/05/19 01:52:45;;;;;;;1.40;1.30;;;7.30;99.90;;;;;;5059152;28;20435;-84
2021/05/19 01:55:13;;;;;;;1.13;1.03;;;7.30;99.90;;;;;;5073591;28;20271;-84
2021/05/19 01:57:42;;;;;;;5.60;1.17;;;7.30;99.90;;;;;;5065079;28;20506;-84
2021/05/19 02:00:08;;;;;;;8.97;1.47;;;7.20;99.90;;;;;;5065811;28;20434;-84
2021/05/19 02:02:34;;;;;;;1.57;1.13;;;7.20;99.90;;;;;;5065957;28;20442;-84
2021/05/19 02:05:00;;;;;;;1.70;1.33;;;7.10;99.90;;;;;;5066491;28;20191;-84
2021/05/19 02:07:27;;;;;;;1.00;0.90;;;;;;;;;;5067266;28;20188;-84
2021/05/19 02:09:53;;;;;;;2.57;1.00;;;7.10;99.90;;;;;;5064283;28;20412;-84
2021/05/19 02:12:19;;;;;;;3.80;1.43;;;;;;;;;;5063943;28;20748;-84
2021/05/19 02:14:44;;;;;;;2.53;1.30;;;7.10;99.90;;;;;;5064566;28;20735;-84
2021/05/19 02:17:10;;;;;;;1.10;1.00;;;7.10;99.90;;;;;;5064475;28;20502;-84
2021/05/19 02:19:38;;;;;;;5.83;1.40;;;;;;;;;;5083303;28;20180;-84
2021/05/19 02:22:04;;;;;;;2.60;1.50;;;;;;;;;;5083025;28;20443;-84
2021/05/19 02:24:30;;;;;;;3.27;1.60;;;;;;;;;;5063166;28;20475;-84
2021/05/19 02:26:56;;;;;;;1.43;1.27;;;6.90;99.90;;;;;;5063231;28;20459;-84
2021/05/19 02:29:22;;;;;;;3.23;1.60;;;6.80;99.90;;;;;;5062661;28;20271;-84
2021/05/19 02:31:47;;;;;;;2.03;1.53;;;6.80;99.90;;;;;;5062949;28;20211;-84
2021/05/19 02:34:13;;;;;;;1.27;1.07;;;6.90;99.90;;;;;;5080973;28;20200;-84
2021/05/19 02:36:40;;;;;;;1.70;1.60;;;;;;;;;;5063090;28;20177;-84
2021/05/19 02:39:10;;;;;;;2.33;1.67;;;6.90;99.90;;;;;;5080535;28;20539;-84
2021/05/19 02:41:40;;;;;;;3.03;1.57;;;6.80;99.90;;;;;;5080447;28;20172;-84
2021/05/19 02:44:08;;;;;;;1.83;1.50;;;6.80;99.90;;;;;;5061986;28;20434;-83
2021/05/19 02:46:34;;;;;;;2.53;1.67;;;6.70;99.90;;;;;;5061612;28;20545;-84
2021/05/19 02:49:03;;;;;;;3.70;1.77;;;;;;;;;;5079555;28;20581;-84
2021/05/19 02:51:35;;;;;;;3.93;1.87;;;6.80;99.90;;;;;;5061489;28;20964;-84
2021/05/19 02:54:02;;;;;;;4.10;2.00;;;6.80;99.90;;;;;;5062438;28;20450;-83
2021/05/19 02:56:28;;;;;;;2.30;2.10;;;;;;;;;;5061493;28;20422;-83
2021/05/19 02:58:54;;;;;;;2.90;2.03;;;;;;;;;;5061601;28;20403;-84
2021/05/19 03:01:20;;;;;;;4.80;1.97;;;6.80;99.90;;;;;;5079699;28;20403;-84
2021/05/19 03:03:46;;;;;;;4.10;2.10;;;;;;;;;;5061528;28;20512;-84
2021/05/19 03:06:13;;;;;;;3.57;2.20;;;6.80;99.90;;;;;;5061423;28;20189;-84
2021/05/19 03:08:39;;;;;;;1.97;1.77;;;6.80;99.90;;;;;;5079080;28;20185;-83
2021/05/19 03:11:06;;;;;;;3.00;1.87;;;6.90;99.90;;;;;;5060603;28;20986;-84
2021/05/19 03:13:32;;;;;;;2.30;2.10;;;6.90;99.90;;;;;;5078728;28;20431;-84
2021/05/19 03:15:58;;;;;;;3.60;2.30;;;;;;;;;;5079378;28;20176;-84
2021/05/19 03:18:24;;;;;;;4.37;1.80;;;6.90;99.90;;;;;;5060294;28;20403;-84
2021/05/19 03:20:50;;;;;;;2.10;1.90;;;;;;;;;;5078813;28;20414;-84
2021/05/19 03:23:16;;;;;;;2.67;2.00;;;;;;;;;;5060486;28;20208;-84
2021/05/19 03:25:43;;;;;;;2.07;1.97;;;6.90;99.90;;;;;;5077851;28;20881;-83
2021/05/19 03:28:09;;;;;;;1.90;1.80;;;6.80;99.90;;;;;;5059614;28;20263;-83
2021/05/19 03:30:35;;;;;;;2.53;1.93;;;6.80;99.90;;;;;;5077296;28;20200;-84
2021/05/19 03:33:01;;;;;;;2.57;2.37;;;;;;;;;;5076719;28;20200;-83
2021/05/19 03:35:27;;;;;;;2.20;2.00;;;6.80;99.90;;;;;;5057889;28;20513;-83
2021/05/19 03:37:53;;;;;;;2.73;2.30;;;;;;;;;;5058049;28;20176;-83
2021/05/19 03:40:19;;;;;;;2.60;2.17;;;;;;;;;;5082520;28;20228;-84
2021/05/19 03:42:45;;;;;;;2.10;1.90;;;;;;;;;;5082296;28;20923;-84
2021/05/19 03:45:18;;;;;;;4.13;2.33;;;6.70;99.90;;;;;;5079790;28;20411;-84
2021/05/19 03:47:45;;;;;;;2.23;1.97;;;6.70;99.90;;;;;;5080472;28;20553;-84
2021/05/19 03:50:12;;;;;;;3.27;2.60;;;6.70;99.90;;;;;;5063011;28;20419;-84
2021/05/19 03:52:38;;;;;;;2.63;2.40;;;;;;;;;;5081471;28;20941;-84
2021/05/19 03:55:07;;;;;;;3.93;2.40;;;6.70;99.90;;;;;;5062708;28;20458;-83
2021/05/19 03:57:33;;;;;;;4.77;2.63;;;;;;;;;;5061951;28;20506;-84
2021/05/19 03:59:59;;;;;;;3.40;2.40;;;6.70;99.90;;;;;;5062135;28;20411;-83
2021/05/19 04:02:25;;;;;;;3.93;3.13;;;;;;;;;;5079842;28;20184;-84
2021/05/19 04:04:51;;;;;;;34.40;21.87;;;6.70;99.90;;;;;;5062809;28;20176;-84
2021/05/19 04:07:16;;;;;;;5.90;5.00;;;6.70;99.90;;;;;;5061055;28;20181;-83
2021/05/19 04:09:42;;;;;;;9.47;6.57;;;;;;;;;;5062471;28;20181;-83
2021/05/19 04:12:08;;;;;;;6.53;5.60;;;;;;;;;;5062610;28;20201;-83
2021/05/19 04:14:34;;;;;;;8.60;7.30;;;6.60;99.90;;;;;;5061642;28;20455;-83
2021/05/19 04:17:00;;;;;;;9.00;5.90;;;;;;;;;;5062700;28;20470;-83
2021/05/19 04:19:26;;;;;;;3.63;3.03;;;6.60;99.90;;;;;;5062471;28;20203;-84
2021/05/19 04:21:51;;;;;;;4.67;4.13;;;6.70;99.90;;;;;;5080539;28;20856;-83
2021/05/19 04:24:17;;;;;;;5.33;3.50;;;6.70;99.90;;;;;;5063635;28;20173;-83
2021/05/19 04:26:43;;;;;;;4.07;3.50;;;6.70;99.90;;;;;;5062990;28;20240;-83
2021/05/19 04:29:09;;;;;;;3.50;3.20;;;;;;;;;;5065875;28;20184;-83
2021/05/19 04:31:34;;;;;;;7.53;5.27;;;6.60;99.90;;;;;;5095471;28;20204;-83
2021/05/19 04:34:00;;;;;;;3.93;3.03;;;6.60;99.90;;;;;;5066890;28;20204;-82
2021/05/19 04:36:26;;;;;;;5.53;3.77;;;6.70;99.90;;;;;;5084385;28;20180;-83
2021/05/19 04:38:52;;;;;;;10.70;9.10;;;;;;;;;;5066679;28;20176;-83
2021/05/19 04:41:20;;;;;;;4.23;3.67;;;;;;;;;;5065570;28;20195;-83
2021/05/19 04:43:45;;;;;;;6.67;4.30;;;6.70;99.90;;;;;;5063626;28;20447;-82
2021/05/19 04:46:11;;;;;;;5.13;3.63;;;;;;;;;;5061319;28;20272;-81
2021/05/19 04:48:37;;;;;;;4.07;2.90;;;;;;;;;;5067481;28;20196;-82
2021/05/19 04:51:04;;;;;;;4.80;4.30;;;6.70;99.90;;;;;;5079615;28;20430;-81
2021/05/19 04:53:30;;;;;;;5.80;4.83;;;6.70;99.90;;;;;;5085209;28;20177;-81
2021/05/19 04:55:56;;;;;;;6.57;4.23;;;;;;;;;;5082833;28;20746;-82
2021/05/19 04:58:25;;;;;;;4.93;4.10;;;6.80;99.90;;;;;;5068821;28;20642;-83
2021/05/19 05:00:51;;;;;;;4.13;3.53;;;6.80;99.90;;;;;;5068863;28;20211;-83
2021/05/19 05:03:18;;;;;;;4.67;4.17;;;6.70;99.90;;;;;;5068951;28;20434;-83
2021/05/19 05:05:44;;;;;;;5.20;4.70;;;6.70;99.90;;;;;;5086153;28;20176;-83
2021/05/19 05:08:10;;;;;;;3.60;3.30;;;6.70;99.90;;;;;;5086034;28;20817;-83
2021/05/19 05:10:35;;;;;;;4.50;4.10;;;6.70;99.90;;;;;;5069126;28;20441;-83
2021/05/19 05:13:01;;;;;;;4.47;4.07;;;6.70;99.90;;;;;;5087073;28;20199;-83
2021/05/19 05:15:27;;;;;;;6.57;4.37;;;6.80;99.90;;;;;;5087997;28;20196;-83
2021/05/19 05:17:52;;;;;;;4.00;3.60;;;6.80;99.90;;;;;;5068850;28;20177;-84
2021/05/19 05:20:19;;;;;;;4.33;3.73;;;;;;;;;;5068716;28;20181;-84
2021/05/19 05:22:45;;;;;;;4.00;3.60;;;;;;;;;;5067032;28;20208;-84
2021/05/19 05:25:13;;;;;;;4.77;3.60;;;6.80;99.90;;;;;;5065981;28;20419;-83
2021/05/19 05:27:39;;;;;;;4.20;3.67;;;6.80;99.90;;;;;;5064805;28;20180;-84
2021/05/19 05:30:05;;;;;;;4.10;3.60;;;6.90;99.90;;;;;;5085874;28;20241;-84
2021/05/19 05:32:31;;;;;;;4.97;4.47;;;6.90;99.90;;;;;;5066595;28;20205;-84
2021/05/19 05:34:57;;;;;;;4.90;4.40;;;;;;;;;;5086621;28;20192;-83
2021/05/19 05:37:23;;;;;;;5.13;3.93;;;6.90;99.90;;;;;;5085442;28;20635;-83
2021/05/19 05:39:50;;;;;;;6.17;4.90;;;;;;;;;;5068666;28;20185;-83
2021/05/19 05:42:15;;;;;;;29.93;21.37;;;7.00;99.90;;;;;;5087130;28;20952;-84
2021/05/19 05:44:41;;;;;;;47.83;36.30;;;7.00;99.90;;;;;;5086500;28;20411;-84
2021/05/19 05:47:07;;;;;;;19.30;16.27;;;7.00;99.90;;;;;;5087082;28;20173;-84
2021/05/19 05:49:32;;;;;;;10.73;8.30;;;7.00;99.90;;;;;;5086534;28;20319;-84
2021/05/19 05:51:58;;;;;;;17.00;12.40;;;6.90;99.90;;;;;;5067787;28;20222;-84
2021/05/19 05:54:24;;;;;;;39.30;29.13;;;6.90;99.90;;;;;;5079549;28;20188;-84
2021/05/19 05:56:49;;;;;;;14.63;11.47;;;6.90;99.90;;;;;;5068389;28;20169;-85
2021/05/19 05:59:15;;;;;;;15.43;12.27;;;6.90;99.90;;;;;;5068081;28;20173;-85
2021/05/19 06:01:41;;;;;;;11.10;9.90;;;6.90;99.90;;;;;;5063365;28;20172;-84
2021/05/19 06:04:07;;;;;;;19.83;17.07;;;;;;;;;;5080470;28;20183;-84
2021/05/19 06:06:32;;;;;;;8.60;7.70;;;6.90;99.90;;;;;;5061967;28;20173;-84
2021/05/19 06:08:58;;;;;;;4.73;4.33;;;;;;;;;;5062436;28;20185;-90
2021/05/19 06:11:24;;;;;;;6.10;4.93;;;;;;;;;;5061909;28;20229;-89
2021/05/19 06:13:50;;;;;;;4.43;4.03;;;7.10;99.90;;;;;;5066298;28;20535;-86
2021/05/19 06:16:16;;;;;;;3.70;3.20;;;7.10;99.90;;;;;;5068678;28;20180;-86
2021/05/19 06:18:42;;;;;;;5.70;5.10;;;;;;;;;;5069431;28;20204;-86
2021/05/19 06:21:08;;;;;;;9.57;8.47;;;7.20;99.90;;;;;;5068458;28;20278;-85
2021/05/19 06:23:33;;;;;;;5.20;4.37;;;7.20;99.90;;;;;;5068343;28;20201;-86
2021/05/19 06:25:59;;;;;;;11.63;9.40;;;7.20;99.90;;;;;;5086954;28;20177;-85
2021/05/19 06:28:25;;;;;;;21.83;11.97;;;;;;;;;;5067327;28;20173;-86
2021/05/19 06:30:51;;;;;;;11.17;8.57;;;;;;;;;;5085535;28;20169;-86
2021/05/19 06:33:17;;;;;;;4.73;3.87;;;7.40;99.90;;;;;;5067011;28;20430;-86
2021/05/19 06:35:42;;;;;;;15.87;8.33;;;7.50;99.90;;;;;;5084780;28;20447;-86
2021/05/19 06:38:08;;;;;;;12.17;7.23;;;;;;;;;;5066343;28;20177;-85
2021/05/19 06:40:34;;;;;;;7.60;5.00;;;7.60;99.90;;;;;;5066652;28;20177;-85
2021/05/19 06:43:00;;;;;;;23.30;13.80;;;;;;;;;;5084439;28;20189;-85
2021/05/19 06:45:26;;;;;;;10.13;7.07;;;;;;;;;;5066799;28;20183;-85
2021/05/19 06:47:52;;;;;;;12.70;7.37;;;7.80;99.90;;;;;;5084868;28;20407;-86
2021/05/19 06:50:18;;;;;;;12.87;7.03;;;7.90;99.90;;;;;;5068323;28;20184;-87
2021/05/19 06:52:44;;;;;;;9.90;6.17;;;7.90;99.90;;;;;;5068315;28;20936;-85
2021/05/19 06:55:12;;;;;;;45.40;21.23;;;8.00;99.90;;;;;;5067674;28;20208;-84
2021/05/19 06:57:38;;;;;;;17.87;9.53;;;8.10;99.90;;;;;;5067201;28;20177;-86
2021/05/19 07:00:08;;;;;;;6.60;4.73;;;8.40;99.90;;;;;;5066911;28;20466;-86
2021/05/19 07:02:34;;;;;;;7.67;5.33;;;8.40;99.90;;;;;;5066299;28;20432;-85
2021/05/19 07:05:00;;;;;;;6.60;4.23;;;8.60;99.90;;;;;;5085530;28;20785;-86
2021/05/19 07:07:26;;;;;;;22.03;6.73;;;8.70;99.90;;;;;;5067063;28;20407;-86
2021/05/19 07:09:52;;;;;;;26.57;11.20;;;8.80;99.90;;;;;;5066222;28;20930;-84
2021/05/19 07:12:18;;;;;;;12.57;6.73;;;8.90;99.90;;;;;;5065638;28;20193;-85
2021/05/19 07:14:50;;;;;;;4.00;2.57;;;8.90;99.90;;;;;;5083490;28;20682;-85
2021/05/19 07:17:16;;;;;;;5.70;3.70;;;8.90;99.90;;;;;;5065171;28;20166;-85
2021/05/19 07:19:41;;;;;;;2.40;2.07;;;9.00;99.90;;;;;;5065447;28;20176;-85
2021/05/19 07:22:07;;;;;;;5.13;3.87;;;;;;;;;;5064391;28;20235;-85
2021/05/19 07:24:33;;;;;;;5.43;3.17;;;9.00;99.90;;;;;;5065281;28;20272;-85
2021/05/19 07:26:59;;;;;;;5.03;3.60;;;8.80;99.90;;;;;;5064253;28;20221;-84
2021/05/19 07:29:25;;;;;;;4.57;2.60;;;8.80;99.90;;;;;;5062483;28;20542;-85
2021/05/19 07:31:51;;;;;;;4.47;2.87;;;;;;;;;;5061229;28;20208;-84
2021/05/19 07:34:17;;;;;;;5.63;3.20;;;8.50;99.90;;;;;;5061329;28;20296;-84
2021/05/19 07:36:43;;;;;;;4.03;3.70;;;;;;;;;;5061264;28;20204;-84
2021/05/19 07:39:09;;;;;;;3.87;3.30;;;8.50;99.90;;;;;;5060758;28;20595;-85
2021/05/19 07:41:36;;;;;;;5.63;3.53;;;8.40;99.90;;;;;;5061476;28;20182;-85
2021/05/19 07:44:02;;;;;;;3.70;3.40;;;8.30;99.90;;;;;;5063679;28;20203;-84
2021/05/19 07:46:28;;;;;;;5.07;3.70;;;;;;;;;;5063388;28;20185;-85
2021/05/19 07:48:54;;;;;;;6.17;5.03;;;8.20;99.90;;;;;;5079038;28;20355;-85
2021/05/19 07:51:20;;;;;;;6.70;3.37;;;8.20;99.90;;;;;;5066746;28;20195;-84
2021/05/19 07:53:46;;;;;;;4.03;2.53;;;8.30;99.90;;;;;;5070557;28;20574;-85
2021/05/19 07:56:20;;;;;;;4.20;3.30;;;;;;;;;;5063371;28;20252;-85
2021/05/19 07:59:08;;;;;;;6.30;4.53;;;8.30;99.90;;;;;;5062715;28;20165;-84
2021/05/19 08:04:09;;;;;;;3.37;3.03;;;8.50;99.90;;;;;;5086630;28;20185;-85
2021/05/19 08:06:36;;;;;;;4.03;2.97;;;8.60;99.90;;;;;;5078135;28;20169;-83
2021/05/19 08:09:02;;;;;;;3.60;2.77;;;8.60;99.90;;;;;;5081998;28;20209;-84
2021/05/19 08:11:28;;;;;;;3.30;2.70;;;8.70;99.90;;;;;;5076023;28;20631;-85
2021/05/19 08:13:54;;;;;;;3.63;2.70;;;8.70;99.90;;;;;;5065434;28;20208;-85
2021/05/19 08:16:20;;;;;;;3.77;2.60;;;8.70;99.90;;;;;;5081982;28;20180;-85
2021/05/19 08:18:47;;;;;;;3.60;2.70;;;8.70;99.90;;;;;;5066568;28;20607;-85
2021/05/19 08:21:13;;;;;;;6.47;3.07;;;8.90;99.90;;;;;;5066398;28;20184;-85
2021/05/19 08:23:39;;;;;;;3.47;2.77;;;9.00;99.90;;;;;;5071340;28;20197;-86
2021/05/19 08:26:05;;;;;;;5.33;2.57;;;9.10;99.90;;;;;;5071597;28;20200;-86
2021/05/19 08:28:36;;;;;;;3.70;2.50;;;9.10;99.90;;;;;;5071437;28;20650;-85
2021/05/19 08:31:02;;;;;;;3.47;2.97;;;9.20;99.90;;;;;;5088858;28;20195;-86
2021/05/19 08:33:28;;;;;;;5.30;2.73;;;9.10;99.90;;;;;;5088287;28;20626;-85
2021/05/19 08:35:54;;;;;;;3.77;2.97;;;;;;;;;;5070840;28;20187;-85
2021/05/19 08:38:20;;;;;;;3.13;2.47;;;9.10;99.90;;;;;;5070055;28;20172;-85
2021/05/19 08:40:45;;;;;;;2.80;2.60;;;9.20;99.90;;;;;;5068607;28;20253;-85
2021/05/19 08:43:12;;;;;;;3.77;2.83;;;9.40;99.90;;;;;;5087056;28;20260;-85
2021/05/19 08:45:38;;;;;;;3.83;2.47;;;9.50;99.90;;;;;;5067319;28;20246;-85
2021/05/19 08:48:05;;;;;;;4.50;3.30;;;9.50;99.90;;;;;;5086806;28;20176;-85
2021/05/19 08:50:32;;;;;;;3.43;3.10;;;9.50;99.90;;;;;;5068702;28;20188;-85
2021/05/19 08:52:59;;;;;;;4.17;2.80;;;9.60;99.90;;;;;;5068399;28;20243;-85
2021/05/19 08:55:27;;;;;;;11.93;9.13;;;9.80;99.90;;;;;;5069038;28;20234;-85
2021/05/19 08:57:53;;;;;;;7.70;5.20;;;10.00;99.90;;;;;;5067620;28;20177;-86
2021/05/19 09:00:20;;;;;;;4.97;3.07;;;10.30;99.90;;;;;;5067590;28;20177;-85
2021/05/19 09:03:05;;;;;;;8.13;6.50;;;10.40;99.90;;;;;;5086147;28;20255;-85
2021/05/19 09:05:32;;;;;;;4.77;3.60;;;10.50;99.90;;;;;;5068370;28;20178;-85
2021/05/19 09:08:12;;;;;;;7.17;4.17;;;10.60;99.90;;;;;;5068282;28;20184;-86
2021/05/19 09:10:40;;;;;;;4.67;3.10;;;10.60;99.90;;;;;;5068039;28;20172;-86
2021/05/19 09:13:06;;;;;;;7.43;3.50;;;10.60;99.90;;;;;;5067810;28;20690;-86
2021/05/19 09:15:49;;;;;;;4.90;3.20;;;10.50;99.90;;;;;;5068550;28;20210;-86
2021/05/19 09:18:15;;;;;;;9.27;2.80;;;10.60;99.90;;;;;;5066589;28;20173;-86
2021/05/19 09:20:49;;;;;;;5.50;3.30;;;10.70;99.90;;;;;;5066254;28;20199;-86
2021/05/19 09:23:22;;;;;;;7.93;3.20;;;10.60;99.90;;;;;;5067335;28;20303;-86
2021/05/19 09:26:07;;;;;;;4.60;3.27;;;9.90;99.90;;;;;;5068296;28;20180;-86
2021/05/19 09:28:34;;;;;;;5.30;3.70;;;10.00;99.90;;;;;;5067988;28;20616;-86
2021/05/19 09:31:00;;;;;;;5.93;3.80;;;9.80;99.90;;;;;;5067448;28;20514;-86
2021/05/19 09:33:28;;;;;;;8.47;4.40;;;9.50;99.90;;;;;;5085279;28;20203;-86
2021/05/19 09:36:19;;;;;;;5.67;3.33;;;9.50;99.90;;;;;;5068181;28;20292;-86
2021/05/19 09:38:54;;;;;;;5.03;4.20;;;9.60;99.90;;;;;;5086586;28;20160;-86
2021/05/19 09:41:31;;;;;;;6.27;4.43;;;9.70;99.90;;;;;;5068056;28;20166;-86
2021/05/19 09:43:59;;;;;;;7.17;4.27;;;9.90;99.90;;;;;;5068154;28;20185;-86
2021/05/19 09:49:18;;;;;;;3.97;2.87;;;9.70;99.90;;;;;;5086425;28;20591;-86
2021/05/19 09:51:59;;;;;;;7.47;2.93;;;10.40;99.90;;;;;;5068655;28;20204;-86
2021/05/19 09:54:25;;;;;;;3.97;2.37;;;10.60;99.90;;;;;;5068318;28;20537;-86
2021/05/19 09:56:55;;;;;;;2.00;1.67;;;11.50;99.90;;;;;;5068069;28;20195;-86
2021/05/19 09:59:22;;;;;;;2.17;1.77;;;11.80;99.90;;;;;;5068212;28;20181;-86
2021/05/19 10:01:49;;;;;;;2.43;2.00;;;12.00;99.90;;;;;;5068192;28;20210;-86
2021/05/19 10:04:16;;;;;;;2.57;1.93;;;12.40;99.90;;;;;;5067930;28;20835;-86
2021/05/19 10:06:42;;;;;;;5.37;2.00;;;13.00;99.90;;;;;;5086618;28;20203;-86
2021/05/19 10:09:08;;;;;;;7.33;2.03;;;13.50;99.90;;;;;;5087772;28;20187;-86
2021/05/19 10:11:35;;;;;;;4.13;2.30;;;13.00;99.90;;;;;;5068349;28;20180;-86
2021/05/19 10:14:03;;;;;;;2.07;1.87;;;13.00;99.90;;;;;;5073174;28;20232;-84
2021/05/19 10:16:29;;;;;;;2.17;1.87;;;13.40;99.90;;;;;;5068506;28;20188;-85
2021/05/19 10:18:56;;;;;;;2.20;1.67;;;13.60;99.90;;;;;;5086217;28;20264;-86
2021/05/19 10:21:31;;;;;;;2.43;1.97;;;13.20;99.90;;;;;;5067820;28;20197;-86
2021/05/19 10:26:29;;;;;;;2.13;1.90;;;12.40;99.90;;;;;;5083024;28;20193;-85
2021/05/19 10:28:55;;;;;;;3.37;1.87;;;12.70;99.90;;;;;;5073171;28;20174;-85
2021/05/19 10:31:41;;;;;;;3.10;1.97;;;12.70;99.90;;;;;;5068763;28;20643;-85
2021/05/19 10:34:07;;;;;;;1.90;1.80;;;12.40;99.90;;;;;;5067591;28;20287;-84
2021/05/19 10:36:35;;;;;;;2.10;1.90;;;11.70;99.90;;;;;;5085704;28;20177;-84
2021/05/19 10:39:07;;;;;;;3.37;2.00;;;11.70;99.90;;;;;;5085263;28;20785;-84
2021/05/19 10:41:53;;;;;;;3.63;1.83;;;11.80;99.90;;;;;;5068093;28;20208;-84
2021/05/19 10:44:24;;;;;;;2.27;1.73;;;12.10;99.90;;;;;;5084450;28;20168;-85
2021/05/19 10:47:08;;;;;;;2.10;1.90;;;12.80;99.90;;;;;;5084185;28;20195;-85
2021/05/19 10:49:46;;;;;;;3.07;1.93;;;13.10;99.90;;;;;;5065845;28;20181;-85
2021/05/19 10:52:19;;;;;;;2.43;1.90;;;12.90;99.90;;;;;;5069054;28;20223;-87
2021/05/19 10:57:48;;;;;;;2.17;1.97;;;12.60;99.90;;;;;;5082065;28;20187;-85
2021/05/19 11:00:23;;;;;;;3.17;2.10;;;12.50;99.90;;;;;;5063799;28;20173;-85
2021/05/19 11:02:59;;;;;;;2.33;2.13;;;12.50;99.90;;;;;;5062892;28;20258;-85
2021/05/19 11:05:28;;;;;;;3.77;2.20;;;12.60;99.90;;;;;;5080147;28;20607;-85
2021/05/19 11:08:13;;;;;;;3.60;2.00;;;12.40;99.90;;;;;;5059836;28;20264;-84
2021/05/19 11:10:52;;;;;;;2.30;2.07;;;12.30;99.90;;;;;;5060495;28;20176;-84
2021/05/19 11:13:23;;;;;;;2.27;1.93;;;12.20;99.90;;;;;;5072594;28;20189;-85
2021/05/19 11:21:03;;;;;;;2.00;1.90;;;12.70;99.90;;;;;;5084143;28;20184;-85
2021/05/19 11:23:29;;;;;;;2.13;1.30;;;12.40;99.90;;;;;;5064330;28;20213;-85
2021/05/19 11:26:13;;;;;;;6.23;1.10;;;11.60;99.90;;;;;;5065055;28;20191;-85
2021/05/19 11:28:39;;;;;;;3.37;1.40;;;10.80;99.90;;;;;;5066606;28;20188;-85
2021/05/19 11:31:09;;;;;;;3.03;1.40;;;10.20;99.90;;;;;;5065813;28;20180;-85
2021/05/19 11:33:58;;;;;;;1.60;1.10;;;9.70;99.90;;;;;;5065035;28;20224;-85
2021/05/19 11:36:35;;;;;;;1.47;1.10;;;8.90;99.90;;;;;;5065275;28;20260;-85
2021/05/19 11:39:05;;;;;;;2.23;1.27;;;8.40;99.90;;;;;;5083459;28;20173;-85
2021/05/19 11:41:32;;;;;;;4.70;1.60;;;8.10;99.90;;;;;;5064738;28;20184;-85
2021/05/19 11:43:58;;;;;;;1.73;1.10;;;8.10;99.90;;;;;;5064467;28;20174;-85
2021/05/19 11:46:24;;;;;;;1.57;0.87;;;8.20;99.90;;;;;;5063422;28;20181;-85
2021/05/19 11:48:51;;;;;;;1.47;1.33;;;8.30;99.90;;;;;;5064839;28;20177;-84
2021/05/19 11:51:21;;;;;;;3.07;1.33;;;8.40;99.90;;;;;;5065517;28;20176;-84
2021/05/19 11:54:02;;;;;;;1.87;1.60;;;8.60;99.90;;;;;;5065978;28;20264;-84
2021/05/19 11:56:52;;;;;;;1.40;1.30;;;8.70;99.90;;;;;;5066989;28;20275;-85
2021/05/19 11:59:28;;;;;;;2.33;1.83;;;9.00;99.90;;;;;;5085105;28;20169;-84
2021/05/19 12:02:10;;;;;;;1.00;0.90;;;9.40;99.90;;;;;;5066545;28;20287;-85
2021/05/19 12:04:41;;;;;;;2.07;1.00;;;9.40;99.90;;;;;;5065736;28;20180;-84
2021/05/19 12:07:09;;;;;;;0.97;0.97;;;9.70;99.90;;;;;;5065768;28;20173;-84
2021/05/19 12:09:39;;;;;;;1.63;0.90;;;9.70;99.90;;;;;;5083968;28;20596;-84
2021/05/19 12:12:12;;;;;;;1.13;1.03;;;9.70;99.90;;;;;;5064743;28;20196;-85
2021/05/19 12:14:51;;;;;;;2.27;1.60;;;9.90;99.90;;;;;;5064267;28;20202;-85
2021/05/19 12:17:23;;;;;;;2.23;1.73;;;10.00;99.90;;;;;;5063575;28;20537;-84
2021/05/19 12:19:48;;;;;;;3.37;2.30;;;10.30;99.90;;;;;;5061793;28;20216;-84
2021/05/19 12:22:18;;;;;;;1.33;1.23;;;10.20;99.90;;;;;;5059983;28;20303;-84
2021/05/19 12:24:45;;;;;;;2.13;1.27;;;9.70;99.90;;;;;;5061373;28;20181;-85
2021/05/19 12:27:10;;;;;;;1.63;1.20;;;9.70;99.90;;;;;;5078165;28;20173;-84
2021/05/19 12:29:36;;;;;;;1.67;1.27;;;9.20;99.90;;;;;;5077661;28;20195;-84
2021/05/19 12:32:15;;;;;;;1.23;1.10;;;8.60;99.90;;;;;;5059304;28;20304;-84
2021/05/19 12:34:42;;;;;;;2.00;1.07;;;8.60;99.90;;;;;;5058674;28;20193;-84
2021/05/19 12:37:08;;;;;;;6.10;1.87;;;8.20;99.90;;;;;;5076256;28;20200;-84
2021/05/19 12:39:34;;;;;;;2.53;1.47;;;8.20;99.90;;;;;;5063609;28;20161;-84
2021/05/19 12:42:11;;;;;;;2.13;1.60;;;8.20;99.90;;;;;;5064720;28;20682;-84
2021/05/19 12:44:36;;;;;;;5.00;1.30;;;8.40;99.90;;;;;;5061792;28;20544;-84
2021/05/19 12:47:07;;;;;;;2.30;1.13;;;8.20;99.90;;;;;;5079564;28;20191;-84
2021/05/19 12:49:36;;;;;;;5.80;5.23;;;8.60;99.90;;;;;;5079626;28;20190;-84
2021/05/19 12:52:16;;;;;;;2.27;2.00;;;8.50;99.90;;;;;;5079621;28;20223;-84
2021/05/19 12:54:46;;;;;;;2.00;1.47;;;8.70;99.90;;;;;;5061194;28;20195;-84
2021/05/19 12:57:17;;;;;;;1.70;1.23;;;9.10;99.90;;;;;;5079920;28;20626;-84
2021/05/19 12:59:56;;;;;;;2.03;1.70;;;9.30;99.90;;;;;;5080424;28;20212;-84
2021/05/19 13:02:25;;;;;;;3.17;1.80;;;9.40;99.90;;;;;;5079818;28;20194;-84
2021/05/19 13:04:53;;;;;;;1.40;1.30;;;9.40;99.90;;;;;;5078630;28;20165;-84
2021/05/19 13:07:22;;;;;;;1.43;1.33;;;9.60;99.90;;;;;;5060362;28;20190;-84
2021/05/19 13:10:09;;;;;;;4.53;1.57;;;9.80;99.90;;;;;;5063295;28;20184;-84
2021/05/19 13:12:49;;;;;;;1.37;1.00;;;10.40;99.90;;;;;;5063851;28;20198;-84
2021/05/19 13:15:16;;;;;;;1.40;0.87;;;10.90;99.90;;;;;;5082118;28;20183;-84
2021/05/19 13:17:59;;;;;;;1.30;1.10;;;11.80;99.90;;;;;;5063631;28;20260;-84
2021/05/19 13:20:28;;;;;;;1.70;1.10;;;11.80;99.90;;;;;;5064069;28;20264;-84
2021/05/19 13:23:03;;;;;;;1.53;0.80;;;12.10;99.90;;;;;;5064095;28;20204;-84
2021/05/19 13:25:30;;;;;;;1.57;0.83;;;12.10;99.90;;;;;;5081203;28;20187;-84
2021/05/19 13:27:56;;;;;;;2.23;1.10;;;12.10;99.90;;;;;;5062533;28;20201;-84
2021/05/19 13:30:27;;;;;;;1.13;1.03;;;11.90;99.90;;;;;;5062517;28;20176;-85
2021/05/19 13:38:21;;;;;;;1.70;0.87;;;11.40;99.90;;;;;;5083675;28;20188;-84
2021/05/19 13:40:47;;;;;;;1.27;0.90;;;12.70;99.90;;;;;;5074687;28;20637;-85
2021/05/19 13:43:13;;;;;;;2.07;1.10;;;13.90;99.90;;;;;;5067966;28;20204;-85
2021/05/19 13:45:39;;;;;;;2.07;1.53;;;14.80;99.90;;;;;;5067506;28;20216;-85
2021/05/19 13:48:06;;;;;;;1.40;1.20;;;15.10;99.90;;;;;;5086586;28;20177;-85
2021/05/19 13:50:32;;;;;;;1.73;1.00;;;14.50;99.90;;;;;;5066133;28;20204;-85
2021/05/19 13:52:58;;;;;;;2.97;1.17;;;13.50;99.90;;;;;;5066319;28;20200;-85
2021/05/19 13:55:24;;;;;;;2.93;1.80;;;13.50;99.90;;;;;;5065655;28;20303;-85
2021/05/19 13:57:50;;;;;;;2.97;0.97;;;13.40;99.90;;;;;;5081978;28;20194;-83
2021/05/19 14:00:16;;;;;;;2.53;1.30;;;14.30;99.90;;;;;;5081314;28;20627;-85
2021/05/19 14:02:42;;;;;;;1.47;0.70;;;15.00;99.90;;;;;;5081202;28;20286;-85
2021/05/19 14:05:08;;;;;;;2.73;1.13;;;14.60;99.90;;;;;;5061346;28;20260;-85
2021/05/19 14:07:34;;;;;;;1.27;1.00;;;14.90;99.90;;;;;;5060954;28;20657;-84
2021/05/19 14:10:00;;;;;;;2.00;1.10;;;15.50;99.90;;;;;;5060643;28;20261;-84